Celebrity Silhouette — 9HA2583 — position and weather

sailwx.info

Track history (hours):
 
Tides and Currents Weather Stations Pressure Air Temp Water Temp Dewpoint Dewpoint Depression Visibility Wind Speed Wind Dir Waves Ship Positions

Celebrity Silhouette

Last reported at 2017-Aug-18 10:27 UTC. Time now 2017-Aug-18 10:51 UTC.
Position N 54°37' W 005°54'.

Length 318 m; draft 8.6 m.

Type: Passenger vessel. MMSI: 248939000.

Date/timePositionNaut miles runAvg speedWind from/ knotsBaromVisibWave heightAir tempDewpointWater temp
2017-Aug-18 10:27N 54°37' W 005°54'0 0.0
2017-Aug-18 09:57N 54°37' W 005°54'0 0.0
2017-Aug-18 09:10N 54°37' W 005°54'0 0.0
2017-Aug-18 09:00N 54°37' W 005°54'0 0.0
2017-Aug-18 08:29N 54°37' W 005°54'0 0.0
2017-Aug-18 07:58N 54°37' W 005°54'0 0.0
2017-Aug-18 07:09N 54°37' W 005°54'0 0.0
2017-Aug-18 06:39N 54°37' W 005°54'0 0.0
2017-Aug-18 06:30N 54°37' W 005°54'0 0.0
2017-Aug-18 05:54N 54°37' W 005°54'0 0.3
2017-Aug-18 05:30N 54°37' W 005°54'1 1.3
2017-Aug-18 05:00N 54°38' W 005°53'5 9.7
2017-Aug-18 04:30N 54°41' W 005°48'510.8
2017-Aug-18 04:00N 54°43' W 005°39'612.2
2017-Aug-18 03:30N 54°44' W 005°29'612.6
2017-Aug-18 03:00N 54°38' W 005°22'613.0
2017-Aug-18 02:30N 54°32' W 005°18'613.0
2017-Aug-18 02:00N 54°26' W 005°14'713.1
2017-Aug-18 01:30N 54°20' W 005°10'713.4
2017-Aug-18 01:00N 54°14' W 005°06'612.8
2017-Aug-18 00:30N 54°08' W 005°02'4712.8
2017-Aug-17 20:50N 53°40' W 003°58'713.3
2017-Aug-17 20:20N 53°36' W 003°49'514.0
2017-Aug-17 19:59N 53°34' W 003°42'613.3
2017-Aug-17 19:30N 53°34' W 003°31'713.5
2017-Aug-17 19:00N 53°32' W 003°20'611.2
2017-Aug-17 18:30N 53°32' W 003°10'510.0
2017-Aug-17 18:00N 53°28' W 003°04'4 8.0
2017-Aug-17 17:30N 53°25' W 003°01'0 1.0
2017-Aug-17 17:00N 53°25' W 003°00'0 0.0
2017-Aug-17 16:24N 53°25' W 003°00'0 0.0
2017-Aug-17 15:57N 53°25' W 003°00'0 0.0
2017-Aug-17 15:24N 53°25' W 003°00'0 0.0
2017-Aug-17 15:00N 53°25' W 003°00'0 0.0
2017-Aug-17 14:30N 53°25' W 003°00'0 0.0
2017-Aug-17 14:00N 53°25' W 003°00'0 0.0
2017-Aug-17 13:15N 53°25' W 003°00'0 0.0
2017-Aug-17 13:00N 53°25' W 003°00'190.0
2017-Aug-17 13:00N 53°24' W 003°00'1 1.1 280 / 61008.0 5.4 24.4 7.918.4
2017-Aug-17 12:30N 53°25' W 003°00'0 0.0
2017-Aug-17 12:00N 53°25' W 003°00'0 0.0
2017-Aug-17 11:18N 53°25' W 003°00'0 0.0
2017-Aug-17 10:57N 53°25' W 003°00'0 0.0
2017-Aug-17 10:30N 53°25' W 003°00'0 0.0
2017-Aug-17 10:00N 53°25' W 003°00'0 0.0
2017-Aug-17 09:24N 53°25' W 003°00'0 0.0
2017-Aug-17 08:57N 53°25' W 003°00'0 0.0
2017-Aug-17 08:30N 53°25' W 003°00'0 0.0
2017-Aug-17 07:54N 53°25' W 003°00'0 0.0
2017-Aug-17 07:30N 53°25' W 003°00'0 0.0
2017-Aug-17 06:57N 53°25' W 003°00'0 0.0
2017-Aug-17 06:30N 53°25' W 003°00'0 0.0
2017-Aug-17 06:00N 53°25' W 003°00'0 0.0
2017-Aug-17 05:26N 53°25' W 003°00'0 0.2
2017-Aug-17 05:00N 53°25' W 003°00'2 4.4
2017-Aug-17 04:29N 53°27' W 003°02'5 9.5
2017-Aug-17 04:00N 53°30' W 003°06'611.6
2017-Aug-17 03:30N 53°31' W 003°16'611.9
2017-Aug-17 03:00N 53°31' W 003°26'1019.9
2017-Aug-17 02:30N 53°31' W 003°43'1122.7
2017-Aug-17 02:00N 53°37' W 003°60'3522.2
2017-Aug-17 00:25N 53°56' W 004°50'921.3
2017-Aug-17 00:00N 54°01' W 005°01'1121.5
2017-Aug-16 23:30N 54°12' W 005°06'1121.5
2017-Aug-16 23:00N 54°22' W 005°09'3168.0
2017-Aug-16 23:00N 54°24' W 005°06'919.5 220 / 301003.0 5.4 15.0 5.313.0
2017-Aug-16 22:30N 54°32' W 005°14'1020.4
2017-Aug-16 22:00N 54°42' W 005°21'1020.3
2017-Aug-16 21:30N 54°51' W 005°29'1020.3
2017-Aug-16 21:00N 54°60' W 005°36'1019.5
2017-Aug-16 20:30N 55°08' W 005°47'918.7
2017-Aug-16 20:00N 55°15' W 005°57'1019.3
2017-Aug-16 19:30N 55°21' W 006°10'1020.3
2017-Aug-16 19:00N 55°26' W 006°25'1020.6
2017-Aug-16 18:30N 55°33' W 006°40'1120.8
2017-Aug-16 18:00N 55°39' W 006°54'1021.0
2017-Aug-16 17:30N 55°49' W 007°01'1220.2
2017-Aug-16 16:55N 56°00' W 007°09'8417.1
2017-Aug-16 12:00N 57°24' W 006°54'10319.7 140 / 431001.0 2.2 13.011.214.7
2017-Aug-16 06:46N 58°44' W 004°50'621.4
2017-Aug-16 06:30N 58°44' W 004°40'1122.0
2017-Aug-16 06:00N 58°44' W 004°18'1121.5
2017-Aug-16 05:30N 58°44' W 003°58'1121.1
2017-Aug-16 05:00N 58°43' W 003°37'1020.4
2017-Aug-16 04:30N 58°43' W 003°18'917.7
2017-Aug-16 04:00N 58°42' W 003°01'917.8
2017-Aug-16 03:30N 58°35' W 002°49'1020.3
2017-Aug-16 03:00N 58°27' W 002°39'1020.4
2017-Aug-16 02:30N 58°18' W 002°29'2620.6
2017-Aug-16 01:16N 57°59' W 001°56'721.1
2017-Aug-16 00:57N 57°54' W 001°48'1021.8
2017-Aug-16 00:30N 57°45' W 001°42'1121.9
2017-Aug-16 00:00N 57°35' W 001°35'2125.7
2017-Aug-16 00:00N 57°36' W 001°36'1424.9 250 / 201013.0 5.4 13.3 9.114.5
2017-Aug-15 23:26N 57°23' W 001°27'921.0
2017-Aug-15 23:00N 57°14' W 001°25'1121.8
2017-Aug-15 22:30N 57°05' W 001°35'1121.7
2017-Aug-15 22:00N 56°55' W 001°44'1121.4
2017-Aug-15 21:30N 56°45' W 001°53'1121.0
2017-Aug-15 21:00N 56°36' W 002°01'1020.8
2017-Aug-15 20:30N 56°27' W 002°09'1020.7
2017-Aug-15 20:00N 56°17' W 002°18'1019.6
2017-Aug-15 19:30N 56°10' W 002°29'1021.0
2017-Aug-15 19:00N 56°07' W 002°47'1020.2
2017-Aug-15 18:30N 56°02' W 003°03'4 7.9
2017-Aug-15 18:00N 56°01' W 003°09'0 0.2
2017-Aug-15 17:30N 56°01' W 003°09'0 0.1
2017-Aug-15 17:00N 56°01' W 003°09'0 0.0
2017-Aug-15 16:30N 56°01' W 003°09'0 0.0
2017-Aug-15 16:00N 56°01' W 003°09'0 0.1
2017-Aug-15 15:30N 56°01' W 003°09'0 0.1
2017-Aug-15 15:00N 56°01' W 003°09'0 0.0
2017-Aug-15 14:24N 56°01' W 003°09'0 0.0
2017-Aug-15 14:00N 56°00' W 003°09'0 0.0
2017-Aug-15 13:30N 56°00' W 003°09'0 0.0
2017-Aug-15 13:00N 56°00' W 003°09'0 0.0
2017-Aug-15 12:27N 56°00' W 003°09'0 0.0
2017-Aug-15 12:00N 56°00' W 003°09'0 0.0
2017-Aug-15 11:30N 56°00' W 003°10'0 0.0
2017-Aug-15 11:00N 56°00' W 003°10'0 0.0
2017-Aug-15 10:30N 56°00' W 003°10'0 0.0
2017-Aug-15 10:00N 56°00' W 003°10'0 0.0
2017-Aug-15 09:30N 56°00' W 003°10'0 0.0
2017-Aug-15 09:00N 56°00' W 003°10'0 0.0
2017-Aug-15 08:30N 56°00' W 003°10'0 0.0
2017-Aug-15 08:00N 56°00' W 003°10'0 0.0
2017-Aug-15 07:30N 56°00' W 003°10'0 0.0
2017-Aug-15 07:00N 56°00' W 003°10'0 0.0
2017-Aug-15 06:30N 56°00' W 003°10'0 0.0
2017-Aug-15 06:00N 56°00' W 003°10'0 0.0
2017-Aug-15 05:30N 56°00' W 003°10'0 0.0
2017-Aug-15 05:00N 56°00' W 003°10'0 0.0
2017-Aug-15 04:30N 56°00' W 003°10'0 0.0
2017-Aug-15 04:00N 56°00' W 003°10'0 0.0
2017-Aug-15 03:30N 56°00' W 003°10'0 0.0
2017-Aug-15 03:00N 56°00' W 003°10'2813.0
2017-Aug-15 03:00N 56°00' W 003°06'2 4.1 270 / 81008.0 5.4 15.313.114.2
2017-Aug-15 02:30N 56°00' W 003°10'0 0.0
2017-Aug-15 02:00N 56°00' W 003°10'0 0.0
2017-Aug-15 01:30N 56°00' W 003°10'0 0.0
2017-Aug-15 01:00N 56°00' W 003°10'0 0.0
2017-Aug-15 00:30N 56°00' W 003°10'0 0.0
2017-Aug-15 00:00N 56°00' W 003°10'2812.3
2017-Aug-15 00:00N 56°00' W 003°06'2 4.1 250 / 71009.0 5.4 14.611.914.4
2017-Aug-14 23:30N 56°00' W 003°10'0 0.0
2017-Aug-14 23:00N 56°00' W 003°10'0 0.0
2017-Aug-14 22:30N 56°00' W 003°10'0 0.0
2017-Aug-14 22:00N 56°00' W 003°10'0 0.0
2017-Aug-14 21:30N 56°00' W 003°10'0 0.0
2017-Aug-14 21:00N 56°00' W 003°10'0 0.0
2017-Aug-14 20:30N 56°00' W 003°10'0 0.0
2017-Aug-14 20:00N 56°00' W 003°10'0 0.0
2017-Aug-14 19:30N 56°00' W 003°10'0 0.0
2017-Aug-14 19:00N 56°00' W 003°10'0 0.0
2017-Aug-14 18:30N 56°00' W 003°10'0 0.0
2017-Aug-14 18:00N 56°00' W 003°10'0 0.0
2017-Aug-14 17:30N 56°00' W 003°10'0 0.0
2017-Aug-14 17:00N 56°00' W 003°10'0 0.0
2017-Aug-14 16:30N 56°00' W 003°10'0 0.0
2017-Aug-14 16:00N 56°00' W 003°10'0 0.0
2017-Aug-14 15:30N 56°00' W 003°10'0 0.0
2017-Aug-14 15:00N 56°00' W 003°10'21043.7
2017-Aug-14 15:00N 56°00' W 003°06'2 3.7 220 / 201011.010.8 18.113.014.4
2017-Aug-14 14:27N 56°00' W 003°10'0 0.0
2017-Aug-14 14:00N 56°00' W 003°10'0 0.0
2017-Aug-14 13:30N 56°00' W 003°10'0 0.0
2017-Aug-14 13:00N 56°00' W 003°10'0 0.0
2017-Aug-14 12:30N 56°00' W 003°10'0 0.0
2017-Aug-14 12:00N 56°00' W 003°10'2820.1
2017-Aug-14 12:00N 56°00' W 003°06'2 4.1 140 / 71013.010.8 15.711.014.4
2017-Aug-14 11:30N 56°00' W 003°10'0 0.0
2017-Aug-14 11:00N 56°00' W 003°10'0 0.0
2017-Aug-14 10:30N 56°00' W 003°10'0 0.0
2017-Aug-14 10:00N 56°00' W 003°10'0 0.0
2017-Aug-14 09:30N 56°00' W 003°10'0 0.0
2017-Aug-14 09:00N 56°00' W 003°10'0 0.0
2017-Aug-14 08:30N 56°00' W 003°10'0 0.0
2017-Aug-14 08:00N 56°00' W 003°10'0 0.0
2017-Aug-14 07:30N 56°00' W 003°10'0 0.1
2017-Aug-14 07:00N 56°01' W 003°09'4 7.4
2017-Aug-14 06:30N 56°02' W 003°04'611.5
2017-Aug-14 06:00N 56°05' W 002°55'815.9
2017-Aug-14 05:30N 56°08' W 002°41'816.0
2017-Aug-14 05:00N 56°10' W 002°27'815.7
2017-Aug-14 04:30N 56°15' W 002°18'816.2
2017-Aug-14 04:00N 56°22' W 002°09'816.3
2017-Aug-14 03:30N 56°29' W 002°00'816.1
2017-Aug-14 03:00N 56°36' W 001°55'816.4
2017-Aug-14 02:30N 56°44' W 001°50'816.4
2017-Aug-14 02:00N 56°52' W 001°45'816.3
2017-Aug-14 01:30N 56°59' W 001°40'816.1
2017-Aug-14 01:00N 57°07' W 001°35'816.1
2017-Aug-14 00:30N 57°15' W 001°34'816.4
2017-Aug-14 00:00N 57°23' W 001°35'816.4
2017-Aug-13 23:30N 57°31' W 001°36'815.8
2017-Aug-13 23:00N 57°39' W 001°39'815.7
2017-Aug-13 22:29N 57°45' W 001°49'714.8
2017-Aug-13 22:00N 57°47' W 002°02'5 0.2
2017-Aug-13 00:23N 57°47' W 002°11'514.7
2017-Aug-13 00:01N 57°47' W 002°01'5310.1
2017-Aug-13 00:00N 57°42' W 002°00'714.8 230 / 111017.0 5.4 12.0 8.314.8
2017-Aug-12 23:30N 57°46' W 001°48'714.7
2017-Aug-12 23:01N 57°40' W 001°40'714.4
2017-Aug-12 22:31N 57°34' W 001°34'714.8
2017-Aug-12 22:01N 57°27' W 001°29'814.8
2017-Aug-12 21:28N 57°20' W 001°23'814.8
2017-Aug-12 20:56N 57°12' W 001°17'13114.7
2017-Aug-12 12:00N 55°12' E 000°18'18514.0 340 / 161012.0 5.4 14.012.316.8
2017-Aug-11 22:47N 52°35' E 003°05'614.8
2017-Aug-11 22:24N 52°32' E 003°13'914.6
2017-Aug-11 21:46N 52°31' E 003°28'415.0
2017-Aug-11 21:29N 52°31' E 003°35'914.7
2017-Aug-11 20:54N 52°31' E 003°49'614.7
2017-Aug-11 20:30N 52°31' E 003°58'714.7
2017-Aug-11 20:01N 52°31' E 004°10'815.0
2017-Aug-11 19:30N 52°30' E 004°22'611.3
2017-Aug-11 19:01N 52°28' E 004°31'3 6.2
2017-Aug-11 18:31N 52°28' E 004°36'0 0.5
2017-Aug-11 18:01N 52°28' E 004°37'2 3.3
2017-Aug-11 17:31N 52°28' E 004°40'2 4.7
2017-Aug-11 17:01N 52°26' E 004°43'2 4.2
2017-Aug-11 16:31N 52°26' E 004°46'3 5.5
2017-Aug-11 16:01N 52°25' E 004°50'2 4.8
2017-Aug-11 15:31N 52°24' E 004°53'1 2.3
2017-Aug-11 14:58N 52°23' E 004°55'0 0.0
2017-Aug-11 13:58N 52°23' E 004°55'0 0.0
2017-Aug-11 13:28N 52°23' E 004°55'0 0.0
2017-Aug-11 12:58N 52°23' E 004°55'0 0.0
2017-Aug-11 12:28N 52°23' E 004°55'510.0
2017-Aug-11 12:00N 52°18' E 004°54'5211.8 280 / 41018.010.8 18.0 9.121.9
2017-Aug-11 11:58N 52°23' E 004°55'0 0.0
2017-Aug-11 11:28N 52°23' E 004°55'0 0.0
2017-Aug-11 10:58N 52°23' E 004°55'0 0.0
2017-Aug-11 10:28N 52°23' E 004°55'0 0.0
2017-Aug-11 09:58N 52°23' E 004°55'0 0.0
2017-Aug-11 09:28N 52°23' E 004°55'0 0.0
2017-Aug-11 08:58N 52°23' E 004°55'0 0.0
2017-Aug-11 08:28N 52°23' E 004°55'0 0.0
2017-Aug-11 07:58N 52°23' E 004°55'0 0.0
2017-Aug-11 07:28N 52°23' E 004°55'0 0.0
2017-Aug-11 06:58N 52°23' E 004°55'0 0.0
2017-Aug-11 06:28N 52°23' E 004°55'0 0.0
2017-Aug-11 05:58N 52°23' E 004°55'0 0.0
2017-Aug-11 05:28N 52°23' E 004°55'0 0.0
2017-Aug-11 04:58N 52°23' E 004°55'0 0.0
2017-Aug-11 04:28N 52°23' E 004°55'0 0.0
2017-Aug-11 03:58N 52°23' E 004°55'0 0.0
2017-Aug-11 03:28N 52°23' E 004°55'0 0.1
2017-Aug-11 03:01N 52°23' E 004°55'0 0.9
2017-Aug-11 02:30N 52°23' E 004°55'2 4.4
2017-Aug-11 02:00N 52°24' E 004°53'4 7.1
2017-Aug-11 01:30N 52°25' E 004°47'4 7.5
2017-Aug-11 01:00N 52°27' E 004°41'4279.1
2017-Aug-11 01:00N 52°24' E 004°36'4 8.4 360 / 111020.0 5.4 16.3 3.821.9
2017-Aug-11 00:30N 52°28' E 004°37'0 0.4
2017-Aug-11 00:00N 52°28' E 004°37'2 3.2
2017-Aug-10 23:30N 52°28' E 004°34'612.5
2017-Aug-10 23:01N 52°28' E 004°24'2013.1
2017-Aug-10 21:30N 52°42' E 004°00'815.4
2017-Aug-10 21:00N 52°49' E 003°58'815.6
2017-Aug-10 20:30N 52°57' E 004°01'816.7
2017-Aug-10 20:00N 53°02' E 004°11'816.4
2017-Aug-10 19:30N 53°08' E 004°21'815.2
2017-Aug-10 18:59N 53°15' E 004°27'815.8
2017-Aug-10 18:28N 53°23' E 004°32'816.1
2017-Aug-10 17:59N 53°30' E 004°36'9615.9
2017-Aug-10 12:00N 54°54' E 005°54'3326.1 320 / 121023.010.8 15.7 4.518.3
2017-Aug-10 10:44N 55°23' E 006°21'620.1
2017-Aug-10 10:24N 55°29' E 006°26'1220.2
2017-Aug-10 09:48N 55°40' E 006°36'17419.0
2017-Aug-10 00:40N 57°48' E 010°11'620.8
2017-Aug-10 00:23N 57°49' E 010°21'2 4.1
2017-Aug-10 00:00N 57°48' E 010°24'7533.4 200 / 191012.0 5.4 16.114.317.8
2017-Aug-09 23:59N 57°51' E 010°37'919.9
2017-Aug-09 23:30N 57°45' E 010°52'1020.7
2017-Aug-09 23:00N 57°38' E 011°06'1020.8
2017-Aug-09 22:30N 57°31' E 011°20'1020.4
2017-Aug-09 22:00N 57°23' E 011°30'1121.5
2017-Aug-09 21:30N 57°12' E 011°37'1120.7
2017-Aug-09 20:59N 57°02' E 011°44'4820.4
2017-Aug-09 18:39N 56°17' E 012°09'218.0
2017-Aug-09 18:30N 56°15' E 012°12'917.9
2017-Aug-09 18:00N 56°10' E 012°25'918.6
2017-Aug-09 17:30N 56°04' E 012°38'917.4
2017-Aug-09 17:00N 55°56' E 012°44'917.2
2017-Aug-09 16:30N 55°47' E 012°43'612.4
2017-Aug-09 16:00N 55°42' E 012°36'0 0.4
2017-Aug-09 15:28N 55°42' E 012°36'0 0.0
2017-Aug-09 14:58N 55°42' E 012°36'0 0.0
2017-Aug-09 14:28N 55°42' E 012°36'0 0.0
2017-Aug-09 13:58N 55°42' E 012°36'0 0.0
2017-Aug-09 13:28N 55°42' E 012°36'0 0.3
2017-Aug-09 13:00N 55°42' E 012°36'0 7.3 220 / 41014.010.8 21.110.719.6
2017-Aug-09 12:58N 55°42' E 012°36'0 0.0
2017-Aug-09 12:28N 55°42' E 012°36'0 0.0
2017-Aug-09 12:00N 55°42' E 012°36'0 0.0
2017-Aug-09 11:30N 55°42' E 012°36'0 0.0
2017-Aug-09 11:00N 55°42' E 012°36'0 0.0
2017-Aug-09 10:30N 55°42' E 012°36'0 0.0
2017-Aug-09 10:00N 55°42' E 012°36'0 0.0
2017-Aug-09 09:30N 55°42' E 012°36'0 0.0
2017-Aug-09 08:59N 55°42' E 012°36'0 0.0
2017-Aug-09 08:29N 55°42' E 012°36'0 0.0
2017-Aug-09 07:58N 55°42' E 012°36'0 0.4
2017-Aug-09 07:31N 55°42' E 012°36'1 3.0
2017-Aug-09 07:01N 55°43' E 012°38'713.0
2017-Aug-09 06:30N 55°49' E 012°43'714.3
2017-Aug-09 06:00N 55°56' E 012°38'714.5
2017-Aug-09 05:30N 56°03' E 012°38'714.2
2017-Aug-09 05:00N 56°08' E 012°29'714.4
2017-Aug-09 04:30N 56°12' E 012°18'714.7
2017-Aug-09 04:00N 56°11' E 012°05'1315.1
2017-Aug-09 03:10N 56°08' E 011°43'415.3
2017-Aug-09 02:55N 56°08' E 011°36'715.0
2017-Aug-09 02:29N 56°07' E 011°24'715.0
2017-Aug-09 02:00N 56°07' E 011°12'814.9
2017-Aug-09 01:30N 56°01' E 011°05'815.4
2017-Aug-09 01:00N 55°54' E 010°56'815.0
2017-Aug-09 00:29N 55°48' E 010°49'1325.1
2017-Aug-09 00:00N 55°36' E 010°42'51157.4 090 / 251010.0 5.4 18.0 1.618.5
2017-Aug-08 23:59N 55°39' E 010°47'918.4
2017-Aug-08 23:29N 55°31' E 010°52'918.0
2017-Aug-08 23:00N 55°23' E 011°01'816.6
2017-Aug-08 22:30N 55°15' E 011°05'714.2
2017-Aug-08 22:00N 55°09' E 011°03'918.0
2017-Aug-08 21:30N 54°60' E 011°02'917.2
2017-Aug-08 21:00N 54°52' E 010°53'917.8
2017-Aug-08 20:30N 54°44' E 010°53'816.9
2017-Aug-08 20:00N 54°39' E 011°05'917.8
2017-Aug-08 19:30N 54°34' E 011°18'917.7
2017-Aug-08 19:00N 54°30' E 011°32'917.6
2017-Aug-08 18:30N 54°27' E 011°45'917.2
2017-Aug-08 18:00N 54°26' E 012°00'815.0
2017-Aug-08 17:30N 54°30' E 012°12'816.5
2017-Aug-08 17:00N 54°38' E 012°17'816.8
2017-Aug-08 16:30N 54°43' E 012°28'816.8
2017-Aug-08 16:01N 54°47' E 012°41'916.9
2017-Aug-08 15:30N 54°50' E 012°55'917.5
2017-Aug-08 15:00N 54°53' E 013°09'917.6
2017-Aug-08 14:30N 54°55' E 013°24'917.4
2017-Aug-08 14:00N 54°58' E 013°38'917.5
2017-Aug-08 13:30N 55°01' E 013°52'917.2
2017-Aug-08 13:00N 55°04' E 014°06'918.3
2017-Aug-08 12:30N 55°11' E 014°17'1020.5
2017-Aug-08 12:00N 55°20' E 014°26'9575.6
2017-Aug-08 12:00N 55°12' E 014°18'1939.6 130 / 271018.010.8 20.211.418.3
2017-Aug-08 11:30N 55°27' E 014°38'1020.5
2017-Aug-08 11:00N 55°32' E 014°54'1020.1
2017-Aug-08 10:30N 55°38' E 015°08'  
Track history (hours):
 
Tides and Currents Weather Stations Pressure Air Temp Water Temp Dewpoint Dewpoint Depression Visibility Wind Speed Wind Dir Waves Ship Positions

Celebrity Silhouette

Last reported at 2017-Aug-18 10:27 UTC. Time now 2017-Aug-18 10:51 UTC.
Position N 54°37' W 005°54'.

Length 318 m; draft 8.6 m.

Type: Passenger vessel. MMSI: 248939000.

Date/timePositionNaut miles runAvg speedWind from/ knotsBaromVisibWave heightAir tempDewpointWater temp
2017-Aug-18 10:27N 54°37' W 005°54'0 0.0
2017-Aug-18 09:57N 54°37' W 005°54'0 0.0
2017-Aug-18 09:10N 54°37' W 005°54'0 0.0
2017-Aug-18 09:00N 54°37' W 005°54'0 0.0
2017-Aug-18 08:29N 54°37' W 005°54'0 0.0
2017-Aug-18 07:58N 54°37' W 005°54'0 0.0
2017-Aug-18 07:09N 54°37' W 005°54'0 0.0
2017-Aug-18 06:39N 54°37' W 005°54'0 0.0
2017-Aug-18 06:30N 54°37' W 005°54'0 0.0
2017-Aug-18 05:54N 54°37' W 005°54'0 0.3
2017-Aug-18 05:30N 54°37' W 005°54'1 1.3
2017-Aug-18 05:00N 54°38' W 005°53'5 9.7
2017-Aug-18 04:30N 54°41' W 005°48'510.8
2017-Aug-18 04:00N 54°43' W 005°39'612.2
2017-Aug-18 03:30N 54°44' W 005°29'612.6
2017-Aug-18 03:00N 54°38' W 005°22'613.0
2017-Aug-18 02:30N 54°32' W 005°18'613.0
2017-Aug-18 02:00N 54°26' W 005°14'713.1
2017-Aug-18 01:30N 54°20' W 005°10'713.4
2017-Aug-18 01:00N 54°14' W 005°06'612.8
2017-Aug-18 00:30N 54°08' W 005°02'4712.8
2017-Aug-17 20:50N 53°40' W 003°58'713.3
2017-Aug-17 20:20N 53°36' W 003°49'514.0
2017-Aug-17 19:59N 53°34' W 003°42'613.3
2017-Aug-17 19:30N 53°34' W 003°31'713.5
2017-Aug-17 19:00N 53°32' W 003°20'611.2
2017-Aug-17 18:30N 53°32' W 003°10'510.0
2017-Aug-17 18:00N 53°28' W 003°04'4 8.0
2017-Aug-17 17:30N 53°25' W 003°01'0 1.0
2017-Aug-17 17:00N 53°25' W 003°00'0 0.0
2017-Aug-17 16:24N 53°25' W 003°00'0 0.0
2017-Aug-17 15:57N 53°25' W 003°00'0 0.0
2017-Aug-17 15:24N 53°25' W 003°00'0 0.0
2017-Aug-17 15:00N 53°25' W 003°00'0 0.0
2017-Aug-17 14:30N 53°25' W 003°00'0 0.0
2017-Aug-17 14:00N 53°25' W 003°00'0 0.0
2017-Aug-17 13:15N 53°25' W 003°00'0 0.0
2017-Aug-17 13:00N 53°25' W 003°00'190.0
2017-Aug-17 13:00N 53°24' W 003°00'1 1.1 280 / 61008.0 5.4 24.4 7.918.4
2017-Aug-17 12:30N 53°25' W 003°00'0 0.0
2017-Aug-17 12:00N 53°25' W 003°00'0 0.0
2017-Aug-17 11:18N 53°25' W 003°00'0 0.0
2017-Aug-17 10:57N 53°25' W 003°00'0 0.0
2017-Aug-17 10:30N 53°25' W 003°00'0 0.0
2017-Aug-17 10:00N 53°25' W 003°00'0 0.0
2017-Aug-17 09:24N 53°25' W 003°00'0 0.0
2017-Aug-17 08:57N 53°25' W 003°00'0 0.0
2017-Aug-17 08:30N 53°25' W 003°00'0 0.0
2017-Aug-17 07:54N 53°25' W 003°00'0 0.0
2017-Aug-17 07:30N 53°25' W 003°00'0 0.0
2017-Aug-17 06:57N 53°25' W 003°00'0 0.0
2017-Aug-17 06:30N 53°25' W 003°00'0 0.0
2017-Aug-17 06:00N 53°25' W 003°00'0 0.0
2017-Aug-17 05:26N 53°25' W 003°00'0 0.2
2017-Aug-17 05:00N 53°25' W 003°00'2 4.4
2017-Aug-17 04:29N 53°27' W 003°02'5 9.5
2017-Aug-17 04:00N 53°30' W 003°06'611.6
2017-Aug-17 03:30N 53°31' W 003°16'611.9
2017-Aug-17 03:00N 53°31' W 003°26'1019.9
2017-Aug-17 02:30N 53°31' W 003°43'1122.7
2017-Aug-17 02:00N 53°37' W 003°60'3522.2
2017-Aug-17 00:25N 53°56' W 004°50'921.3
2017-Aug-17 00:00N 54°01' W 005°01'1121.5
2017-Aug-16 23:30N 54°12' W 005°06'1121.5
2017-Aug-16 23:00N 54°22' W 005°09'3168.0
2017-Aug-16 23:00N 54°24' W 005°06'919.5 220 / 301003.0 5.4 15.0 5.313.0
2017-Aug-16 22:30N 54°32' W 005°14'1020.4
2017-Aug-16 22:00N 54°42' W 005°21'1020.3
2017-Aug-16 21:30N 54°51' W 005°29'1020.3
2017-Aug-16 21:00N 54°60' W 005°36'1019.5
2017-Aug-16 20:30N 55°08' W 005°47'918.7
2017-Aug-16 20:00N 55°15' W 005°57'1019.3
2017-Aug-16 19:30N 55°21' W 006°10'1020.3
2017-Aug-16 19:00N 55°26' W 006°25'1020.6
2017-Aug-16 18:30N 55°33' W 006°40'1120.8
2017-Aug-16 18:00N 55°39' W 006°54'1021.0
2017-Aug-16 17:30N 55°49' W 007°01'1220.2
2017-Aug-16 16:55N 56°00' W 007°09'8417.1
2017-Aug-16 12:00N 57°24' W 006°54'10319.7 140 / 431001.0 2.2 13.011.214.7
2017-Aug-16 06:46N 58°44' W 004°50'621.4
2017-Aug-16 06:30N 58°44' W 004°40'1122.0
2017-Aug-16 06:00N 58°44' W 004°18'1121.5
2017-Aug-16 05:30N 58°44' W 003°58'1121.1
2017-Aug-16 05:00N 58°43' W 003°37'1020.4
2017-Aug-16 04:30N 58°43' W 003°18'917.7
2017-Aug-16 04:00N 58°42' W 003°01'917.8
2017-Aug-16 03:30N 58°35' W 002°49'1020.3
2017-Aug-16 03:00N 58°27' W 002°39'1020.4
2017-Aug-16 02:30N 58°18' W 002°29'2620.6
2017-Aug-16 01:16N 57°59' W 001°56'721.1
2017-Aug-16 00:57N 57°54' W 001°48'1021.8
2017-Aug-16 00:30N 57°45' W 001°42'1121.9
2017-Aug-16 00:00N 57°35' W 001°35'2125.7
2017-Aug-16 00:00N 57°36' W 001°36'1424.9 250 / 201013.0 5.4 13.3 9.114.5
2017-Aug-15 23:26N 57°23' W 001°27'921.0
2017-Aug-15 23:00N 57°14' W 001°25'1121.8
2017-Aug-15 22:30N 57°05' W 001°35'1121.7
2017-Aug-15 22:00N 56°55' W 001°44'1121.4
2017-Aug-15 21:30N 56°45' W 001°53'1121.0
2017-Aug-15 21:00N 56°36' W 002°01'1020.8
2017-Aug-15 20:30N 56°27' W 002°09'1020.7
2017-Aug-15 20:00N 56°17' W 002°18'1019.6
2017-Aug-15 19:30N 56°10' W 002°29'1021.0
2017-Aug-15 19:00N 56°07' W 002°47'1020.2
2017-Aug-15 18:30N 56°02' W 003°03'4 7.9
2017-Aug-15 18:00N 56°01' W 003°09'0 0.2
2017-Aug-15 17:30N 56°01' W 003°09'0 0.1
2017-Aug-15 17:00N 56°01' W 003°09'0 0.0
2017-Aug-15 16:30N 56°01' W 003°09'0 0.0
2017-Aug-15 16:00N 56°01' W 003°09'0 0.1
2017-Aug-15 15:30N 56°01' W 003°09'0 0.1
2017-Aug-15 15:00N 56°01' W 003°09'0 0.0
2017-Aug-15 14:24N 56°01' W 003°09'0 0.0
2017-Aug-15 14:00N 56°00' W 003°09'0 0.0
2017-Aug-15 13:30N 56°00' W 003°09'0 0.0
2017-Aug-15 13:00N 56°00' W 003°09'0 0.0
2017-Aug-15 12:27N 56°00' W 003°09'0 0.0
2017-Aug-15 12:00N 56°00' W 003°09'0 0.0
2017-Aug-15 11:30N 56°00' W 003°10'0 0.0
2017-Aug-15 11:00N 56°00' W 003°10'0 0.0
2017-Aug-15 10:30N 56°00' W 003°10'0 0.0
2017-Aug-15 10:00N 56°00' W 003°10'0 0.0
2017-Aug-15 09:30N 56°00' W 003°10'0 0.0
2017-Aug-15 09:00N 56°00' W 003°10'0 0.0
2017-Aug-15 08:30N 56°00' W 003°10'0 0.0
2017-Aug-15 08:00N 56°00' W 003°10'0 0.0
2017-Aug-15 07:30N 56°00' W 003°10'0 0.0
2017-Aug-15 07:00N 56°00' W 003°10'0 0.0
2017-Aug-15 06:30N 56°00' W 003°10'0 0.0
2017-Aug-15 06:00N 56°00' W 003°10'0 0.0
2017-Aug-15 05:30N 56°00' W 003°10'0 0.0
2017-Aug-15 05:00N 56°00' W 003°10'0 0.0
2017-Aug-15 04:30N 56°00' W 003°10'0 0.0
2017-Aug-15 04:00N 56°00' W 003°10'0 0.0
2017-Aug-15 03:30N 56°00' W 003°10'0 0.0
2017-Aug-15 03:00N 56°00' W 003°10'2813.0
2017-Aug-15 03:00N 56°00' W 003°06'2 4.1 270 / 81008.0 5.4 15.313.114.2
2017-Aug-15 02:30N 56°00' W 003°10'0 0.0
2017-Aug-15 02:00N 56°00' W 003°10'0 0.0
2017-Aug-15 01:30N 56°00' W 003°10'0 0.0
2017-Aug-15 01:00N 56°00' W 003°10'0 0.0
2017-Aug-15 00:30N 56°00' W 003°10'0 0.0
2017-Aug-15 00:00N 56°00' W 003°10'2812.3
2017-Aug-15 00:00N 56°00' W 003°06'2 4.1 250 / 71009.0 5.4 14.611.914.4
2017-Aug-14 23:30N 56°00' W 003°10'0 0.0
2017-Aug-14 23:00N 56°00' W 003°10'0 0.0
2017-Aug-14 22:30N 56°00' W 003°10'0 0.0
2017-Aug-14 22:00N 56°00' W 003°10'0 0.0
2017-Aug-14 21:30N 56°00' W 003°10'0 0.0
2017-Aug-14 21:00N 56°00' W 003°10'0 0.0
2017-Aug-14 20:30N 56°00' W 003°10'0 0.0
2017-Aug-14 20:00N 56°00' W 003°10'0 0.0
2017-Aug-14 19:30N 56°00' W 003°10'0 0.0
2017-Aug-14 19:00N 56°00' W 003°10'0 0.0
2017-Aug-14 18:30N 56°00' W 003°10'0 0.0
2017-Aug-14 18:00N 56°00' W 003°10'0 0.0
2017-Aug-14 17:30N 56°00' W 003°10'0 0.0
2017-Aug-14 17:00N 56°00' W 003°10'0 0.0
2017-Aug-14 16:30N 56°00' W 003°10'0 0.0
2017-Aug-14 16:00N 56°00' W 003°10'0 0.0
2017-Aug-14 15:30N 56°00' W 003°10'0 0.0
2017-Aug-14 15:00N 56°00' W 003°10'21043.7
2017-Aug-14 15:00N 56°00' W 003°06'2 3.7 220 / 201011.010.8 18.113.014.4
2017-Aug-14 14:27N 56°00' W 003°10'0 0.0
2017-Aug-14 14:00N 56°00' W 003°10'0 0.0
2017-Aug-14 13:30N 56°00' W 003°10'0 0.0
2017-Aug-14 13:00N 56°00' W 003°10'0 0.0
2017-Aug-14 12:30N 56°00' W 003°10'0 0.0
2017-Aug-14 12:00N 56°00' W 003°10'2820.1
2017-Aug-14 12:00N 56°00' W 003°06'2 4.1 140 / 71013.010.8 15.711.014.4
2017-Aug-14 11:30N 56°00' W 003°10'0 0.0
2017-Aug-14 11:00N 56°00' W 003°10'0 0.0
2017-Aug-14 10:30N 56°00' W 003°10'0 0.0
2017-Aug-14 10:00N 56°00' W 003°10'0 0.0
2017-Aug-14 09:30N 56°00' W 003°10'0 0.0
2017-Aug-14 09:00N 56°00' W 003°10'0 0.0
2017-Aug-14 08:30N 56°00' W 003°10'0 0.0
2017-Aug-14 08:00N 56°00' W 003°10'0 0.0
2017-Aug-14 07:30N 56°00' W 003°10'0 0.1
2017-Aug-14 07:00N 56°01' W 003°09'4 7.4
2017-Aug-14 06:30N 56°02' W 003°04'611.5
2017-Aug-14 06:00N 56°05' W 002°55'815.9
2017-Aug-14 05:30N 56°08' W 002°41'816.0
2017-Aug-14 05:00N 56°10' W 002°27'815.7
2017-Aug-14 04:30N 56°15' W 002°18'816.2
2017-Aug-14 04:00N 56°22' W 002°09'816.3
2017-Aug-14 03:30N 56°29' W 002°00'816.1
2017-Aug-14 03:00N 56°36' W 001°55'816.4
2017-Aug-14 02:30N 56°44' W 001°50'816.4
2017-Aug-14 02:00N 56°52' W 001°45'816.3
2017-Aug-14 01:30N 56°59' W 001°40'816.1
2017-Aug-14 01:00N 57°07' W 001°35'816.1
2017-Aug-14 00:30N 57°15' W 001°34'816.4
2017-Aug-14 00:00N 57°23' W 001°35'816.4
2017-Aug-13 23:30N 57°31' W 001°36'815.8
2017-Aug-13 23:00N 57°39' W 001°39'815.7
2017-Aug-13 22:29N 57°45' W 001°49'714.8
2017-Aug-13 22:00N 57°47' W 002°02'5 0.2
2017-Aug-13 00:23N 57°47' W 002°11'514.7
2017-Aug-13 00:01N 57°47' W 002°01'5310.1
2017-Aug-13 00:00N 57°42' W 002°00'714.8 230 / 111017.0 5.4 12.0 8.314.8
2017-Aug-12 23:30N 57°46' W 001°48'714.7
2017-Aug-12 23:01N 57°40' W 001°40'714.4
2017-Aug-12 22:31N 57°34' W 001°34'714.8
2017-Aug-12 22:01N 57°27' W 001°29'814.8
2017-Aug-12 21:28N 57°20' W 001°23'814.8
2017-Aug-12 20:56N 57°12' W 001°17'13114.7
2017-Aug-12 12:00N 55°12' E 000°18'18514.0 340 / 161012.0 5.4 14.012.316.8
2017-Aug-11 22:47N 52°35' E 003°05'614.8
2017-Aug-11 22:24N 52°32' E 003°13'914.6
2017-Aug-11 21:46N 52°31' E 003°28'415.0
2017-Aug-11 21:29N 52°31' E 003°35'914.7
2017-Aug-11 20:54N 52°31' E 003°49'614.7
2017-Aug-11 20:30N 52°31' E 003°58'714.7
2017-Aug-11 20:01N 52°31' E 004°10'815.0
2017-Aug-11 19:30N 52°30' E 004°22'611.3
2017-Aug-11 19:01N 52°28' E 004°31'3 6.2
2017-Aug-11 18:31N 52°28' E 004°36'0 0.5
2017-Aug-11 18:01N 52°28' E 004°37'2 3.3
2017-Aug-11 17:31N 52°28' E 004°40'2 4.7
2017-Aug-11 17:01N 52°26' E 004°43'2 4.2
2017-Aug-11 16:31N 52°26' E 004°46'3 5.5
2017-Aug-11 16:01N 52°25' E 004°50'2 4.8
2017-Aug-11 15:31N 52°24' E 004°53'1 2.3
2017-Aug-11 14:58N 52°23' E 004°55'0 0.0
2017-Aug-11 13:58N 52°23' E 004°55'0 0.0
2017-Aug-11 13:28N 52°23' E 004°55'0 0.0
2017-Aug-11 12:58N 52°23' E 004°55'0 0.0
2017-Aug-11 12:28N 52°23' E 004°55'510.0
2017-Aug-11 12:00N 52°18' E 004°54'5211.8 280 / 41018.010.8 18.0 9.121.9
2017-Aug-11 11:58N 52°23' E 004°55'0 0.0
2017-Aug-11 11:28N 52°23' E 004°55'0 0.0
2017-Aug-11 10:58N 52°23' E 004°55'0 0.0
2017-Aug-11 10:28N 52°23' E 004°55'0 0.0
2017-Aug-11 09:58N 52°23' E 004°55'0 0.0
2017-Aug-11 09:28N 52°23' E 004°55'0 0.0
2017-Aug-11 08:58N 52°23' E 004°55'0 0.0
2017-Aug-11 08:28N 52°23' E 004°55'0 0.0
2017-Aug-11 07:58N 52°23' E 004°55'0 0.0
2017-Aug-11 07:28N 52°23' E 004°55'0 0.0
2017-Aug-11 06:58N 52°23' E 004°55'0 0.0
2017-Aug-11 06:28N 52°23' E 004°55'0 0.0
2017-Aug-11 05:58N 52°23' E 004°55'0 0.0
2017-Aug-11 05:28N 52°23' E 004°55'0 0.0
2017-Aug-11 04:58N 52°23' E 004°55'0 0.0
2017-Aug-11 04:28N 52°23' E 004°55'0 0.0
2017-Aug-11 03:58N 52°23' E 004°55'0 0.0
2017-Aug-11 03:28N 52°23' E 004°55'0 0.1
2017-Aug-11 03:01N 52°23' E 004°55'0 0.9
2017-Aug-11 02:30N 52°23' E 004°55'2 4.4
2017-Aug-11 02:00N 52°24' E 004°53'4 7.1
2017-Aug-11 01:30N 52°25' E 004°47'4 7.5
2017-Aug-11 01:00N 52°27' E 004°41'4279.1
2017-Aug-11 01:00N 52°24' E 004°36'4 8.4 360 / 111020.0 5.4 16.3 3.821.9
2017-Aug-11 00:30N 52°28' E 004°37'0 0.4
2017-Aug-11 00:00N 52°28' E 004°37'2 3.2
2017-Aug-10 23:30N 52°28' E 004°34'612.5
2017-Aug-10 23:01N 52°28' E 004°24'2013.1
2017-Aug-10 21:30N 52°42' E 004°00'815.4
2017-Aug-10 21:00N 52°49' E 003°58'815.6
2017-Aug-10 20:30N 52°57' E 004°01'816.7
2017-Aug-10 20:00N 53°02' E 004°11'816.4
2017-Aug-10 19:30N 53°08' E 004°21'815.2
2017-Aug-10 18:59N 53°15' E 004°27'815.8
2017-Aug-10 18:28N 53°23' E 004°32'816.1
2017-Aug-10 17:59N 53°30' E 004°36'9615.9
2017-Aug-10 12:00N 54°54' E 005°54'3326.1 320 / 121023.010.8 15.7 4.518.3
2017-Aug-10 10:44N 55°23' E 006°21'620.1
2017-Aug-10 10:24N 55°29' E 006°26'1220.2
2017-Aug-10 09:48N 55°40' E 006°36'17419.0
2017-Aug-10 00:40N 57°48' E 010°11'620.8
2017-Aug-10 00:23N 57°49' E 010°21'2 4.1
2017-Aug-10 00:00N 57°48' E 010°24'7533.4 200 / 191012.0 5.4 16.114.317.8
2017-Aug-09 23:59N 57°51' E 010°37'919.9
2017-Aug-09 23:30N 57°45' E 010°52'1020.7
2017-Aug-09 23:00N 57°38' E 011°06'1020.8
2017-Aug-09 22:30N 57°31' E 011°20'1020.4
2017-Aug-09 22:00N 57°23' E 011°30'1121.5
2017-Aug-09 21:30N 57°12' E 011°37'1120.7
2017-Aug-09 20:59N 57°02' E 011°44'4820.4
2017-Aug-09 18:39N 56°17' E 012°09'218.0
2017-Aug-09 18:30N 56°15' E 012°12'917.9
2017-Aug-09 18:00N 56°10' E 012°25'918.6
2017-Aug-09 17:30N 56°04' E 012°38'917.4
2017-Aug-09 17:00N 55°56' E 012°44'917.2
2017-Aug-09 16:30N 55°47' E 012°43'612.4
2017-Aug-09 16:00N 55°42' E 012°36'0 0.4
2017-Aug-09 15:28N 55°42' E 012°36'0 0.0
2017-Aug-09 14:58N 55°42' E 012°36'0 0.0
2017-Aug-09 14:28N 55°42' E 012°36'0 0.0
2017-Aug-09 13:58N 55°42' E 012°36'0 0.0
2017-Aug-09 13:28N 55°42' E 012°36'0 0.3
2017-Aug-09 13:00N 55°42' E 012°36'0 7.3 220 / 41014.010.8 21.110.719.6
2017-Aug-09 12:58N 55°42' E 012°36'0 0.0
2017-Aug-09 12:28N 55°42' E 012°36'0 0.0
2017-Aug-09 12:00N 55°42' E 012°36'0 0.0
2017-Aug-09 11:30N 55°42' E 012°36'0 0.0
2017-Aug-09 11:00N 55°42' E 012°36'0 0.0
2017-Aug-09 10:30N 55°42' E 012°36'0 0.0
2017-Aug-09 10:00N 55°42' E 012°36'0 0.0
2017-Aug-09 09:30N 55°42' E 012°36'0 0.0
2017-Aug-09 08:59N 55°42' E 012°36'0 0.0
2017-Aug-09 08:29N 55°42' E 012°36'0 0.0
2017-Aug-09 07:58N 55°42' E 012°36'0 0.4
2017-Aug-09 07:31N 55°42' E 012°36'1 3.0
2017-Aug-09 07:01N 55°43' E 012°38'713.0
2017-Aug-09 06:30N 55°49' E 012°43'714.3
2017-Aug-09 06:00N 55°56' E 012°38'714.5
2017-Aug-09 05:30N 56°03' E 012°38'714.2
2017-Aug-09 05:00N 56°08' E 012°29'714.4
2017-Aug-09 04:30N 56°12' E 012°18'714.7
2017-Aug-09 04:00N 56°11' E 012°05'1315.1
2017-Aug-09 03:10N 56°08' E 011°43'415.3
2017-Aug-09 02:55N 56°08' E 011°36'715.0
2017-Aug-09 02:29N 56°07' E 011°24'715.0
2017-Aug-09 02:00N 56°07' E 011°12'814.9
2017-Aug-09 01:30N 56°01' E 011°05'815.4
2017-Aug-09 01:00N 55°54' E 010°56'815.0
2017-Aug-09 00:29N 55°48' E 010°49'1325.1
2017-Aug-09 00:00N 55°36' E 010°42'51157.4 090 / 251010.0 5.4 18.0 1.618.5
2017-Aug-08 23:59N 55°39' E 010°47'918.4
2017-Aug-08 23:29N 55°31' E 010°52'918.0
2017-Aug-08 23:00N 55°23' E 011°01'816.6
2017-Aug-08 22:30N 55°15' E 011°05'714.2
2017-Aug-08 22:00N 55°09' E 011°03'918.0
2017-Aug-08 21:30N 54°60' E 011°02'917.2
2017-Aug-08 21:00N 54°52' E 010°53'917.8
2017-Aug-08 20:30N 54°44' E 010°53'816.9
2017-Aug-08 20:00N 54°39' E 011°05'917.8
2017-Aug-08 19:30N 54°34' E 011°18'917.7
2017-Aug-08 19:00N 54°30' E 011°32'917.6
2017-Aug-08 18:30N 54°27' E 011°45'917.2
2017-Aug-08 18:00N 54°26' E 012°00'815.0
2017-Aug-08 17:30N 54°30' E 012°12'816.5
2017-Aug-08 17:00N 54°38' E 012°17'816.8
2017-Aug-08 16:30N 54°43' E 012°28'816.8
2017-Aug-08 16:01N 54°47' E 012°41'916.9
2017-Aug-08 15:30N 54°50' E 012°55'917.5
2017-Aug-08 15:00N 54°53' E 013°09'917.6
2017-Aug-08 14:30N 54°55' E 013°24'917.4
2017-Aug-08 14:00N 54°58' E 013°38'917.5
2017-Aug-08 13:30N 55°01' E 013°52'917.2
2017-Aug-08 13:00N 55°04' E 014°06'918.3
2017-Aug-08 12:30N 55°11' E 014°17'1020.5
2017-Aug-08 12:00N 55°20' E 014°26'9575.6
2017-Aug-08 12:00N 55°12' E 014°18'1939.6 130 / 271018.010.8 20.211.418.3
2017-Aug-08 11:30N 55°27' E 014°38'1020.5
2017-Aug-08 11:00N 55°32' E 014°54'1020.1
2017-Aug-08 10:30N 55°38' E 015°08'  

Dump ship's entire track history